Time;durP1;ratioP1;P1;durP2;ratioP2;P2;SDS_P1;SDS_P2;PMS_P1;PMS_P2;Temp;Humidity;BMP_temperature;BMP_pressure;BME280_temperature;BME280_humidity;BME280_pressure;Samples;Min_cycle;Max_cycle;Signal;HPM_P1;HPM_P2
2021/12/10 00:00:54;;;;;;;6.80;5.63;;;6.60;99.90;;;;;;5073780;28;20466;-83
2021/12/10 00:03:30;;;;;;;7.10;5.50;;;6.40;99.90;;;;;;5075658;28;20427;-81
2021/12/10 00:06:01;;;;;;;7.40;5.97;;;6.40;99.90;;;;;;5068015;28;20793;-85
2021/12/10 00:08:30;;;;;;;7.37;5.73;;;6.20;99.90;;;;;;5056840;28;20462;-83
2021/12/10 00:10:59;;;;;;;6.77;5.90;;;6.40;99.90;;;;;;5057519;28;20927;-83
2021/12/10 00:13:26;;;;;;;8.10;5.37;;;6.50;99.90;;;;;;5056316;28;20413;-84
2021/12/10 00:15:55;;;;;;;7.80;5.70;;;6.40;99.90;;;;;;5065449;28;20435;-84
2021/12/10 00:18:26;;;;;;;6.90;5.67;;;6.30;99.90;;;;;;5047796;28;20444;-85
2021/12/10 00:20:57;;;;;;;6.37;5.70;;;6.20;99.90;;;;;;5059209;28;20527;-84
2021/12/10 00:23:28;;;;;;;6.50;5.87;;;6.00;99.90;;;;;;5027759;28;20886;-83
2021/12/10 00:25:54;;;;;;;5.80;5.17;;;6.10;99.90;;;;;;5039792;28;20534;-83
2021/12/10 00:28:27;;;;;;;8.70;6.10;;;6.10;99.90;;;;;;5059405;28;20483;-82
2021/12/10 00:31:16;;;;;;;7.77;5.90;;;6.00;99.90;;;;;;5057844;28;20196;-84
2021/12/10 00:33:49;;;;;;;6.90;6.00;;;6.20;99.90;;;;;;5074931;28;20464;-82
2021/12/10 00:36:15;;;;;;;8.13;6.20;;;6.20;99.90;;;;;;5033054;28;20428;-84
2021/12/10 00:38:41;;;;;;;6.43;5.63;;;5.90;99.90;;;;;;5038227;28;20428;-84
2021/12/10 00:41:08;;;;;;;6.30;5.70;;;5.90;99.90;;;;;;5059821;28;20481;-83
2021/12/10 00:43:35;;;;;;;7.07;6.00;;;6.00;99.90;;;;;;5028727;28;20431;-85
2021/12/10 00:46:01;;;;;;;7.40;5.90;;;5.90;99.90;;;;;;5056816;28;21106;-81
2021/12/10 00:48:27;;;;;;;8.23;6.17;;;6.00;99.90;;;;;;5057461;28;20539;-82
2021/12/10 00:50:55;;;;;;;6.80;6.03;;;6.10;99.90;;;;;;5035872;28;20218;-82
2021/12/10 00:53:22;;;;;;;7.10;6.40;;;5.90;99.90;;;;;;5056496;28;20424;-82
2021/12/10 00:55:48;;;;;;;6.40;5.80;;;5.90;99.90;;;;;;5041460;28;20431;-84
2021/12/10 00:58:15;;;;;;;9.73;6.10;;;5.80;99.90;;;;;;5056146;28;20455;-82
2021/12/10 01:00:45;;;;;;;6.17;5.43;;;5.80;99.90;;;;;;5058134;28;20431;-82
2021/12/10 01:03:15;;;;;;;6.23;5.63;;;5.90;99.90;;;;;;5041735;28;20424;-82
2021/12/10 01:05:43;;;;;;;7.93;6.10;;;5.90;99.90;;;;;;5060935;28;20427;-83
2021/12/10 01:08:10;;;;;;;6.40;5.80;;;5.90;99.90;;;;;;5061179;28;20489;-83
2021/12/10 01:10:41;;;;;;;6.00;5.30;;;5.90;99.90;;;;;;5078336;28;20415;-83
2021/12/10 01:13:12;;;;;;;8.80;6.73;;;6.00;99.90;;;;;;5077545;28;20419;-84
2021/12/10 01:16:05;;;;;;;7.87;5.67;;;6.00;99.90;;;;;;5061882;28;20569;-83
2021/12/10 01:24:19;;;;;;;6.07;4.97;;;6.00;99.90;;;;;;5082586;28;20941;-84
2021/12/10 01:29:17;;;;;;;6.53;5.80;;;5.90;99.90;;;;;;5060634;28;20825;-84
2021/12/10 01:31:44;;;;;;;8.43;6.97;;;5.90;99.90;;;;;;5077378;28;20811;-83
2021/12/10 01:34:11;;;;;;;6.80;5.47;;;5.70;99.90;;;;;;5082494;28;20506;-82
2021/12/10 01:36:38;;;;;;;8.30;5.33;;;5.80;99.90;;;;;;5052433;28;20510;-83
2021/12/10 01:39:11;;;;;;;7.57;5.50;;;5.90;99.90;;;;;;5063457;28;20434;-83
2021/12/10 01:41:39;;;;;;;7.73;6.17;;;5.80;99.90;;;;;;5051287;28;20428;-84
2021/12/10 01:44:15;;;;;;;8.00;6.10;;;5.80;99.90;;;;;;5063685;28;20432;-81
2021/12/10 01:46:43;;;;;;;9.63;5.63;;;5.90;99.90;;;;;;5048195;28;20490;-84
2021/12/10 01:49:12;;;;;;;8.07;5.53;;;5.80;99.90;;;;;;5063272;28;20447;-84
2021/12/10 01:51:39;;;;;;;9.47;6.30;;;5.50;99.90;;;;;;5050492;28;20987;-84
2021/12/10 01:54:18;;;;;;;6.40;5.60;;;5.60;99.90;;;;;;5038828;28;20428;-84
2021/12/10 01:56:44;;;;;;;7.50;5.40;;;5.60;99.90;;;;;;5061464;28;20458;-84
2021/12/10 01:59:13;;;;;;;5.97;5.37;;;5.50;99.90;;;;;;5063181;28;20431;-83
2021/12/10 02:01:43;;;;;;;6.23;5.43;;;5.50;99.90;;;;;;5076870;28;20469;-81
2021/12/10 02:04:12;;;;;;;6.13;5.23;;;5.70;99.90;;;;;;5035559;28;20423;-84
2021/12/10 02:06:39;;;;;;;9.83;6.40;;;5.60;99.90;;;;;;5045899;28;20435;-84
2021/12/10 02:09:05;;;;;;;6.60;5.47;;;5.40;99.90;;;;;;5027682;28;20459;-83
2021/12/10 02:11:31;;;;;;;8.83;5.80;;;5.70;99.90;;;;;;5049615;28;20415;-84
2021/12/10 02:13:57;;;;;;;7.50;5.33;;;5.50;99.90;;;;;;5062535;28;20434;-82
2021/12/10 02:16:24;;;;;;;10.60;5.73;;;5.40;99.90;;;;;;5058622;28;20216;-87
2021/12/10 02:18:50;;;;;;;7.83;5.77;;;5.50;99.90;;;;;;5062305;28;20427;-84
2021/12/10 02:21:21;;;;;;;8.70;5.20;;;5.60;99.90;;;;;;5041015;28;20439;-83
2021/12/10 02:23:57;;;;;;;7.90;5.77;;;5.40;99.90;;;;;;5061889;28;20189;-82
2021/12/10 02:26:26;;;;;;;6.77;5.10;;;5.50;99.90;;;;;;5041534;28;20431;-81
2021/12/10 02:28:53;;;;;;;6.53;5.00;;;5.50;99.90;;;;;;5074175;28;20461;-81
2021/12/10 02:31:19;;;;;;;6.80;5.20;;;5.40;99.90;;;;;;5072101;28;20457;-83
2021/12/10 02:33:44;;;;;;;10.50;5.37;;;5.40;99.90;;;;;;5041050;28;20491;-81
2021/12/10 02:36:12;;;;;;;6.70;4.50;;;5.40;99.90;;;;;;5078673;28;20398;-83
2021/12/10 02:38:50;;;;;;;6.07;4.40;;;5.40;99.90;;;;;;5047302;28;20442;-81
2021/12/10 02:41:19;;;;;;;6.43;4.50;;;5.30;99.90;;;;;;5035838;28;20424;-83
2021/12/10 02:43:46;;;;;;;7.53;5.03;;;5.40;99.90;;;;;;5076562;28;20967;-81
2021/12/10 02:46:12;;;;;;;6.60;4.97;;;5.40;99.90;;;;;;5077523;28;20438;-81
2021/12/10 02:48:38;;;;;;;5.47;4.33;;;5.10;99.90;;;;;;5045963;28;20460;-84
2021/12/10 02:51:05;;;;;;;5.40;4.57;;;5.10;99.90;;;;;;5051426;28;20507;-85
2021/12/10 02:53:35;;;;;;;6.70;4.60;;;5.20;99.90;;;;;;5042975;28;20944;-82
2021/12/10 02:56:02;;;;;;;6.47;4.20;;;5.10;99.90;;;;;;5050286;28;20956;-83
2021/12/10 02:58:28;;;;;;;6.50;4.00;;;5.10;99.90;;;;;;5076815;28;20443;-81
2021/12/10 03:01:07;;;;;;;6.40;4.00;;;5.10;99.90;;;;;;5059777;28;20443;-83
2021/12/10 03:03:36;;;;;;;7.17;4.83;;;5.10;99.90;;;;;;5054413;28;20189;-83
2021/12/10 03:06:08;;;;;;;5.80;4.20;;;5.00;99.90;;;;;;5045743;28;20431;-84
2021/12/10 03:08:34;;;;;;;6.23;4.60;;;4.90;99.90;;;;;;5038044;28;20460;-84
2021/12/10 03:11:00;;;;;;;7.30;4.30;;;4.90;99.90;;;;;;5040089;28;20534;-82
2021/12/10 03:13:25;;;;;;;6.90;4.20;;;5.00;99.90;;;;;;5078932;28;20181;-83
2021/12/10 03:15:52;;;;;;;8.00;4.40;;;5.00;99.90;;;;;;5034683;28;20264;-84
2021/12/10 03:18:19;;;;;;;6.70;4.20;;;5.00;99.90;;;;;;5040773;28;20224;-84
2021/12/10 03:20:46;;;;;;;4.13;3.40;;;5.00;99.90;;;;;;5073134;28;20462;-81
2021/12/10 03:23:12;;;;;;;7.00;4.23;;;4.90;99.90;;;;;;5061098;28;20480;-82
2021/12/10 03:25:38;;;;;;;5.17;3.40;;;5.00;99.90;;;;;;5057383;28;20951;-81
2021/12/10 03:28:05;;;;;;;5.20;3.60;;;4.80;99.90;;;;;;5067551;28;20829;-84
2021/12/10 03:30:35;;;;;;;5.90;3.47;;;5.00;99.90;;;;;;5060896;28;20455;-83
2021/12/10 03:33:01;;;;;;;3.97;2.87;;;4.80;99.90;;;;;;5074352;28;20431;-84
2021/12/10 03:35:34;;;;;;;4.50;3.23;;;5.00;99.90;;;;;;5079033;28;20832;-84
2021/12/10 03:38:04;;;;;;;4.60;3.03;;;4.70;99.90;;;;;;5026128;28;20210;-84
2021/12/10 03:40:31;;;;;;;4.77;2.63;;;4.80;99.90;;;;;;5061853;28;20605;-82
2021/12/10 03:43:00;;;;;;;7.90;2.70;;;4.90;99.90;;;;;;5035667;28;21066;-84
2021/12/10 03:45:33;;;;;;;11.40;2.67;;;4.90;99.90;;;;;;5056031;28;20428;-83
2021/12/10 03:48:02;;;;;;;3.57;2.77;;;4.70;99.90;;;;;;5072341;28;21273;-81
2021/12/10 03:50:31;;;;;;;3.93;2.67;;;4.60;99.90;;;;;;5041089;28;20445;-83
2021/12/10 03:52:57;;;;;;;5.33;2.90;;;4.60;99.90;;;;;;5062507;28;20412;-83
2021/12/10 03:55:23;;;;;;;4.00;2.77;;;4.70;99.90;;;;;;5078502;28;20492;-83
2021/12/10 03:57:51;;;;;;;6.43;2.70;;;4.70;99.90;;;;;;5049963;28;20870;-83
2021/12/10 04:00:19;;;;;;;4.10;3.00;;;4.50;99.90;;;;;;5061251;28;20211;-82
2021/12/10 04:02:45;;;;;;;4.20;2.40;;;4.90;99.90;;;;;;5027705;28;20431;-81
2021/12/10 04:05:11;;;;;;;5.50;2.93;;;4.80;99.90;;;;;;5058971;28;20436;-83
2021/12/10 04:07:37;;;;;;;4.97;2.50;;;4.60;99.90;;;;;;5057995;28;20509;-82
2021/12/10 04:10:06;;;;;;;4.57;2.50;;;4.90;99.90;;;;;;5067594;28;20474;-82
2021/12/10 04:12:32;;;;;;;6.23;3.00;;;4.70;99.90;;;;;;5064580;28;20237;-81
2021/12/10 04:14:58;;;;;;;5.80;2.40;;;4.70;99.90;;;;;;5054431;28;20474;-82
2021/12/10 04:17:23;;;;;;;4.27;2.37;;;4.50;99.90;;;;;;5073425;28;20197;-81
2021/12/10 04:19:50;;;;;;;7.50;2.93;;;4.60;99.90;;;;;;5061209;28;20200;-81
2021/12/10 04:22:18;;;;;;;5.53;2.40;;;4.50;99.90;;;;;;5041928;28;20224;-81
2021/12/10 04:24:44;;;;;;;7.27;2.10;;;4.60;99.90;;;;;;5061706;28;20523;-82
2021/12/10 04:27:12;;;;;;;9.67;2.73;;;4.60;99.90;;;;;;5077987;28;20665;-82
2021/12/10 04:29:38;;;;;;;6.97;2.63;;;4.70;99.90;;;;;;5061455;28;20265;-83
2021/12/10 04:32:05;;;;;;;3.43;2.03;;;4.70;99.90;;;;;;5068540;28;20570;-82
2021/12/10 04:34:31;;;;;;;3.40;2.10;;;4.70;99.90;;;;;;5077746;28;20506;-82
2021/12/10 04:37:01;;;;;;;4.50;2.27;;;4.80;99.90;;;;;;5061549;28;20444;-83
2021/12/10 04:39:28;;;;;;;3.47;2.33;;;4.50;99.90;;;;;;5056500;28;20466;-83
2021/12/10 04:41:54;;;;;;;5.83;2.03;;;4.60;99.90;;;;;;5076166;28;20961;-82
2021/12/10 04:44:20;;;;;;;3.30;1.70;;;4.50;99.90;;;;;;5040731;28;20457;-80
2021/12/10 04:46:46;;;;;;;6.93;2.20;;;4.70;99.90;;;;;;5041999;28;20217;-83
2021/12/10 04:49:13;;;;;;;3.90;1.90;;;4.70;99.90;;;;;;5060921;28;20197;-83
2021/12/10 04:51:47;;;;;;;4.67;2.07;;;4.40;99.90;;;;;;5048585;28;20422;-83
2021/12/10 04:54:14;;;;;;;2.10;1.50;;;4.50;99.90;;;;;;5045247;28;20961;-83
2021/12/10 04:56:40;;;;;;;8.20;1.80;;;4.40;99.90;;;;;;5062082;28;20455;-80
2021/12/10 04:59:09;;;;;;;3.67;1.90;;;4.60;99.90;;;;;;5081807;28;20419;-82
2021/12/10 05:01:36;;;;;;;4.63;1.57;;;4.70;99.90;;;;;;5081118;28;20185;-82
2021/12/10 05:04:04;;;;;;;6.80;1.80;;;4.60;99.90;;;;;;5075871;28;20415;-82
2021/12/10 05:06:30;;;;;;;4.90;2.10;;;4.70;99.90;;;;;;5042372;28;20438;-82
2021/12/10 05:08:57;;;;;;;7.57;1.60;;;4.50;99.90;;;;;;5060984;28;20487;-83
2021/12/10 05:11:22;;;;;;;3.30;1.50;;;4.70;99.90;;;;;;5044834;28;20511;-83
2021/12/10 05:13:48;;;;;;;3.87;1.63;;;4.60;99.90;;;;;;5036708;28;21142;-84
2021/12/10 05:16:15;;;;;;;6.17;2.00;;;4.60;99.90;;;;;;5060702;28;20419;-83
2021/12/10 05:18:45;;;;;;;2.93;1.53;;;4.70;99.90;;;;;;5048218;28;20423;-82
2021/12/10 05:21:13;;;;;;;3.03;1.63;;;4.80;99.90;;;;;;5081030;28;20422;-81
2021/12/10 05:23:39;;;;;;;3.57;1.73;;;4.80;99.90;;;;;;5077844;28;21219;-81
2021/12/10 05:26:06;;;;;;;12.17;2.00;;;4.80;99.90;;;;;;5063183;28;20510;-82
2021/12/10 05:28:32;;;;;;;4.83;1.60;;;4.60;99.90;;;;;;5072797;28;20455;-81
2021/12/10 05:30:59;;;;;;;4.17;1.60;;;4.70;99.90;;;;;;5080914;28;20438;-81
2021/12/10 05:33:26;;;;;;;3.93;1.83;;;4.70;99.90;;;;;;5057711;28;20509;-85
2021/12/10 05:35:53;;;;;;;3.60;1.93;;;4.70;99.90;;;;;;5079437;28;20436;-82
2021/12/10 05:38:21;;;;;;;4.63;2.20;;;4.80;99.90;;;;;;5063032;28;20492;-85
2021/12/10 05:40:50;;;;;;;6.60;2.00;;;4.70;99.90;;;;;;5059700;28;20435;-86
2021/12/10 05:43:16;;;;;;;3.80;1.80;;;4.70;99.90;;;;;;5061812;28;20416;-82
2021/12/10 05:45:43;;;;;;;4.70;1.97;;;4.80;99.90;;;;;;5041514;28;20444;-84
2021/12/10 05:48:09;;;;;;;5.60;2.37;;;4.60;99.90;;;;;;5070176;28;20463;-84
2021/12/10 05:50:35;;;;;;;8.20;3.30;;;4.50;99.90;;;;;;5060145;28;20423;-82
2021/12/10 05:53:02;;;;;;;10.57;2.13;;;4.60;99.90;;;;;;5050969;28;20420;-81
2021/12/10 05:55:28;;;;;;;2.37;2.17;;;4.60;99.90;;;;;;5067222;28;20855;-84
2021/12/10 05:57:54;;;;;;;6.13;2.33;;;4.50;99.90;;;;;;5064351;28;20436;-84
2021/12/10 06:00:37;;;;;;;3.50;2.13;;;4.60;99.90;;;;;;5068455;28;20522;-85
2021/12/10 06:03:02;;;;;;;10.03;3.10;;;4.50;99.90;;;;;;5058673;28;20451;-83
2021/12/10 06:05:31;;;;;;;4.20;2.50;;;4.70;99.90;;;;;;5063826;28;20427;-85
2021/12/10 06:07:57;;;;;;;4.03;2.37;;;4.60;99.90;;;;;;5062299;28;20210;-84
2021/12/10 06:10:22;;;;;;;7.90;2.30;;;4.70;99.90;;;;;;5062862;28;20464;-84
2021/12/10 06:12:49;;;;;;;7.13;2.60;;;4.70;99.90;;;;;;5063778;28;20230;-82
2021/12/10 06:15:17;;;;;;;8.37;3.00;;;4.80;99.90;;;;;;5081079;28;20985;-83
2021/12/10 06:17:43;;;;;;;4.47;2.60;;;4.80;99.90;;;;;;5062372;28;21009;-83
2021/12/10 06:20:13;;;;;;;4.40;1.80;;;4.70;99.90;;;;;;5046919;28;20420;-80
2021/12/10 06:22:39;;;;;;;3.70;2.67;;;4.80;99.90;;;;;;5078203;28;20847;-83
2021/12/10 06:25:06;;;;;;;5.53;2.20;;;4.50;99.90;;;;;;5079268;28;20450;-83
2021/12/10 06:27:32;;;;;;;7.40;2.40;;;4.70;99.90;;;;;;5044454;28;20201;-84
2021/12/10 06:29:58;;;;;;;4.00;2.10;;;4.40;99.90;;;;;;5078919;28;20451;-84
2021/12/10 06:32:26;;;;;;;7.60;2.70;;;4.80;99.90;;;;;;5030278;28;20182;-82
2021/12/10 06:34:52;;;;;;;5.80;2.30;;;4.50;99.90;;;;;;5051444;28;20455;-82
2021/12/10 06:37:18;;;;;;;3.30;2.13;;;4.40;99.90;;;;;;5055033;28;20440;-81
2021/12/10 06:39:44;;;;;;;3.80;2.57;;;4.60;99.90;;;;;;5052966;28;20441;-84
2021/12/10 06:42:09;;;;;;;5.40;2.40;;;4.60;99.90;;;;;;5077704;28;20192;-81
2021/12/10 06:44:35;;;;;;;4.07;2.10;;;4.50;99.90;;;;;;5051800;28;20189;-83
2021/12/10 06:47:05;;;;;;;3.33;1.83;;;4.70;99.90;;;;;;5010921;28;20211;-82
2021/12/10 06:49:32;;;;;;;2.67;2.47;;;4.70;99.90;;;;;;5025968;28;20295;-81
2021/12/10 06:51:58;;;;;;;6.20;2.07;;;4.70;99.90;;;;;;5057724;28;20481;-82
2021/12/10 06:54:23;;;;;;;3.30;1.90;;;4.60;99.90;;;;;;5073026;28;20462;-80
2021/12/10 06:56:50;;;;;;;5.67;1.90;;;4.50;99.90;;;;;;5073827;28;20479;-82
2021/12/10 06:59:16;;;;;;;5.30;2.20;;;4.50;99.90;;;;;;5053968;28;20188;-83
2021/12/10 07:01:43;;;;;;;5.53;2.53;;;4.40;99.90;;;;;;5057794;28;20427;-84
2021/12/10 07:04:11;;;;;;;5.70;1.97;;;4.60;99.90;;;;;;5034662;28;20193;-83
2021/12/10 07:06:39;;;;;;;2.60;1.77;;;4.40;99.90;;;;;;5074619;28;20439;-85
2021/12/10 07:09:09;;;;;;;3.13;1.90;;;4.50;99.90;;;;;;5034455;28;20499;-85
2021/12/10 07:11:36;;;;;;;3.07;1.97;;;4.40;99.90;;;;;;5030852;28;20460;-81
2021/12/10 07:14:03;;;;;;;4.33;1.73;;;4.50;99.90;;;;;;5053237;28;21034;-83
2021/12/10 07:16:30;;;;;;;2.30;1.70;;;4.60;99.90;;;;;;5042791;28;20445;-80
2021/12/10 07:18:58;;;;;;;3.70;2.00;;;4.60;99.90;;;;;;5058701;28;20454;-82
2021/12/10 07:21:26;;;;;;;3.73;2.27;;;4.50;99.90;;;;;;5056523;28;20424;-81
2021/12/10 07:23:52;;;;;;;7.60;2.00;;;4.50;99.90;;;;;;5072244;28;20430;-83
2021/12/10 07:26:18;;;;;;;2.80;1.57;;;4.40;99.90;;;;;;5053309;28;20451;-83
2021/12/10 07:28:44;;;;;;;4.07;1.90;;;4.50;99.90;;;;;;5025196;28;20455;-84
2021/12/10 07:31:11;;;;;;;7.97;1.73;;;4.40;99.90;;;;;;5078551;28;20441;-83
2021/12/10 07:33:37;;;;;;;4.67;2.13;;;4.40;99.90;;;;;;5039546;28;20428;-84
2021/12/10 07:36:04;;;;;;;2.70;1.70;;;4.40;99.90;;;;;;5070144;28;20479;-83
2021/12/10 07:38:30;;;;;;;6.30;2.10;;;4.60;99.90;;;;;;5040435;28;20846;-82
2021/12/10 07:40:56;;;;;;;6.70;1.83;;;4.50;99.90;;;;;;5060084;28;20498;-83
2021/12/10 07:43:22;;;;;;;5.00;1.73;;;4.40;99.90;;;;;;5076932;28;20415;-83
2021/12/10 07:45:51;;;;;;;7.60;1.90;;;4.40;99.90;;;;;;5036042;28;20198;-83
2021/12/10 07:48:20;;;;;;;6.60;1.53;;;4.40;99.90;;;;;;5050992;28;20936;-82
2021/12/10 07:50:58;;;;;;;7.90;2.10;;;4.50;99.90;;;;;;5054328;28;20553;-83
2021/12/10 07:53:26;;;;;;;3.20;1.53;;;4.40;99.90;;;;;;5028632;28;20431;-84
2021/12/10 07:55:52;;;;;;;4.63;1.60;;;4.60;99.90;;;;;;5059770;28;20451;-82
2021/12/10 07:58:17;;;;;;;5.40;1.90;;;4.50;99.90;;;;;;5059624;28;20461;-82
2021/12/10 08:00:45;;;;;;;8.40;1.80;;;4.40;99.90;;;;;;5060303;28;20419;-84
2021/12/10 08:03:11;;;;;;;6.20;2.17;;;4.40;99.90;;;;;;5076341;28;20633;-81
2021/12/10 08:05:39;;;;;;;3.40;1.60;;;4.60;99.90;;;;;;5076243;28;20455;-82
2021/12/10 08:08:06;;;;;;;5.60;1.93;;;4.60;99.90;;;;;;5039543;28;20208;-81
2021/12/10 08:10:33;;;;;;;9.17;2.27;;;4.60;99.90;;;;;;5043236;28;20420;-80
2021/12/10 08:12:59;;;;;;;3.30;1.80;;;4.60;99.90;;;;;;5050302;28;20423;-80
2021/12/10 08:15:26;;;;;;;2.87;1.70;;;4.50;99.90;;;;;;5063961;28;20412;-80
2021/12/10 08:17:51;;;;;;;6.57;2.00;;;4.60;99.90;;;;;;5046857;28;20201;-83
2021/12/10 08:20:21;;;;;;;3.60;2.23;;;4.50;99.90;;;;;;5055252;28;20426;-80
2021/12/10 08:22:48;;;;;;;3.80;1.90;;;4.60;99.90;;;;;;5050701;28;20192;-81
2021/12/10 08:25:16;;;;;;;2.60;1.87;;;4.60;99.90;;;;;;5060390;28;20482;-83
2021/12/10 08:27:42;;;;;;;7.00;1.73;;;4.70;99.90;;;;;;5068116;28;20431;-80
2021/12/10 08:30:11;;;;;;;5.07;2.33;;;4.70;99.90;;;;;;5035876;28;20513;-82
2021/12/10 08:32:38;;;;;;;4.07;1.60;;;5.10;99.90;;;;;;5037464;28;20425;-79
2021/12/10 08:35:08;;;;;;;8.30;1.90;;;5.10;99.90;;;;;;5039528;28;20419;-82
2021/12/10 08:37:34;;;;;;;5.50;1.87;;;5.30;99.90;;;;;;5052605;28;20777;-83
2021/12/10 08:40:00;;;;;;;3.67;1.90;;;5.40;99.90;;;;;;5055548;28;20481;-81
2021/12/10 08:42:25;;;;;;;4.60;2.00;;;5.70;99.90;;;;;;5073116;28;20245;-83
2021/12/10 08:44:51;;;;;;;4.03;1.80;;;5.70;99.90;;;;;;5052375;28;20424;-82
2021/12/10 08:47:18;;;;;;;4.47;1.80;;;5.60;99.90;;;;;;5047454;28;20733;-82
2021/12/10 08:49:45;;;;;;;4.73;2.10;;;5.60;99.90;;;;;;5055890;28;20447;-81
2021/12/10 08:52:14;;;;;;;4.40;1.60;;;5.50;99.90;;;;;;5038791;28;20450;-81
2021/12/10 08:54:42;;;;;;;3.67;1.80;;;5.70;99.90;;;;;;5026636;28;20965;-80
2021/12/10 08:57:08;;;;;;;3.07;1.60;;;5.70;99.90;;;;;;5033644;28;20998;-80
2021/12/10 08:59:36;;;;;;;2.77;1.80;;;5.80;99.90;;;;;;5030532;28;20458;-82
2021/12/10 09:02:05;;;;;;;3.70;1.70;;;5.90;99.90;;;;;;5052209;28;20416;-82
2021/12/10 09:04:33;;;;;;;2.90;1.87;;;6.20;99.90;;;;;;5061901;28;20432;-83
2021/12/10 09:07:06;;;;;;;3.17;1.90;;;6.00;99.90;;;;;;5053936;28;20457;-81
2021/12/10 09:09:33;;;;;;;2.23;1.60;;;6.40;99.90;;;;;;5023767;28;20456;-80
2021/12/10 09:12:02;;;;;;;3.10;1.73;;;6.50;99.90;;;;;;5051896;28;21005;-82
2021/12/10 09:14:34;;;;;;;4.40;1.60;;;6.60;99.90;;;;;;5039502;28;20408;-83
2021/12/10 09:17:01;;;;;;;2.97;1.93;;;6.70;99.90;;;;;;5071345;28;20964;-80
2021/12/10 09:19:29;;;;;;;2.40;1.70;;;6.70;99.90;;;;;;5047138;28;20447;-81
2021/12/10 09:21:54;;;;;;;2.97;1.50;;;7.10;99.90;;;;;;5054380;28;20592;-82
2021/12/10 09:24:21;;;;;;;6.70;2.00;;;7.00;99.90;;;;;;5033656;28;20424;-83
2021/12/10 09:26:52;;;;;;;4.43;1.50;;;7.10;99.90;;;;;;5061744;28;20276;-83
2021/12/10 09:29:18;;;;;;;2.90;1.67;;;7.30;99.90;;;;;;5069852;28;20478;-80
2021/12/10 09:31:45;;;;;;;3.63;1.60;;;7.40;99.90;;;;;;5041754;28;20432;-82
2021/12/10 09:34:13;;;;;;;4.90;2.00;;;7.60;99.90;;;;;;5068913;28;20204;-82
2021/12/10 09:36:40;;;;;;;2.67;1.50;;;8.00;99.90;;;;;;5037758;28;20462;-81
2021/12/10 09:39:07;;;;;;;2.83;1.93;;;8.00;99.90;;;;;;5071396;28;20816;-82
2021/12/10 09:41:33;;;;;;;4.37;2.20;;;7.90;99.90;;;;;;5073290;28;20985;-81
2021/12/10 09:43:59;;;;;;;4.63;1.53;;;7.90;99.90;;;;;;5043170;28;20502;-82
2021/12/10 09:46:25;;;;;;;2.90;1.93;;;8.00;99.90;;;;;;5074070;28;20177;-83
2021/12/10 09:48:51;;;;;;;2.83;1.90;;;7.60;99.90;;;;;;5060938;28;20276;-80
2021/12/10 09:51:31;;;;;;;1.87;1.50;;;7.70;99.90;;;;;;5052889;28;20412;-82
2021/12/10 09:54:01;;;;;;;2.80;1.20;;;8.10;99.90;;;;;;5034881;28;20761;-81
2021/12/10 09:56:28;;;;;;;3.67;1.70;;;8.50;99.90;;;;;;5040693;28;20444;-83
2021/12/10 09:58:56;;;;;;;4.03;1.80;;;8.90;99.90;;;;;;5057572;28;20423;-80
2021/12/10 10:01:28;;;;;;;3.90;1.63;;;9.00;99.90;;;;;;5071944;28;20415;-81
2021/12/10 10:04:01;;;;;;;2.13;1.50;;;8.80;99.90;;;;;;5064471;28;20427;-82
2021/12/10 10:06:30;;;;;;;3.13;1.57;;;8.70;99.90;;;;;;5073291;28;20572;-82
2021/12/10 10:08:56;;;;;;;2.90;1.67;;;8.70;99.70;;;;;;5040029;28;20451;-81
2021/12/10 10:11:27;;;;;;;3.73;1.70;;;8.60;99.90;;;;;;5034465;28;20423;-79
2021/12/10 10:13:54;;;;;;;5.93;1.90;;;8.30;99.90;;;;;;5071304;28;20422;-80
2021/12/10 10:16:21;;;;;;;2.70;1.73;;;8.20;99.90;;;;;;5021405;28;20470;-82
2021/12/10 10:18:48;;;;;;;4.77;1.80;;;7.80;99.90;;;;;;5032470;28;20530;-83
2021/12/10 10:21:23;;;;;;;3.47;1.57;;;7.50;99.90;;;;;;5031939;28;20504;-83
2021/12/10 10:23:50;;;;;;;3.17;1.70;;;7.50;99.90;;;;;;5055707;28;20796;-83
2021/12/10 10:26:31;;;;;;;3.27;1.63;;;7.50;99.90;;;;;;5041808;28;20427;-82
2021/12/10 10:29:02;;;;;;;3.40;2.00;;;7.20;99.90;;;;;;5071910;28;20455;-82
2021/12/10 10:31:28;;;;;;;3.70;1.50;;;7.20;99.90;;;;;;5061707;28;20427;-80
2021/12/10 10:33:56;;;;;;;2.77;1.30;;;7.20;99.90;;;;;;5061177;28;20431;-81
2021/12/10 10:36:24;;;;;;;3.03;1.67;;;7.30;99.90;;;;;;5035921;28;20805;-80
2021/12/10 10:39:03;;;;;;;5.40;1.40;;;7.30;99.90;;;;;;5037521;28;20415;-81
2021/12/10 10:41:31;;;;;;;2.53;1.30;;;7.20;99.90;;;;;;5044680;28;20416;-82
2021/12/10 10:43:57;;;;;;;7.80;2.73;;;7.30;99.90;;;;;;5049461;28;20474;-82
2021/12/10 10:46:24;;;;;;;4.00;1.40;;;7.60;99.90;;;;;;5035771;28;20455;-82
2021/12/10 10:48:49;;;;;;;2.23;1.20;;;7.50;99.90;;;;;;5052650;28;20490;-80
2021/12/10 10:51:24;;;;;;;3.47;1.53;;;7.80;99.90;;;;;;5073541;28;20459;-80
2021/12/10 10:53:53;;;;;;;5.40;1.93;;;7.70;99.90;;;;;;5064723;28;20716;-82
2021/12/10 10:56:30;;;;;;;5.53;3.43;;;7.80;99.90;;;;;;5039873;28;20999;-81
2021/12/10 10:59:01;;;;;;;2.47;1.37;;;7.50;99.90;;;;;;5063547;28;20748;-83
2021/12/10 11:01:39;;;;;;;3.00;1.60;;;7.60;99.90;;;;;;5019542;28;20430;-82
2021/12/10 11:04:17;;;;;;;6.80;1.60;;;7.60;99.90;;;;;;5065250;28;21005;-80
2021/12/10 11:06:49;;;;;;;6.80;1.63;;;7.40;99.90;;;;;;5072380;28;20439;-81
2021/12/10 11:09:21;;;;;;;2.47;1.30;;;7.50;99.90;;;;;;5051863;28;20490;-82
2021/12/10 11:12:06;;;;;;;3.80;1.57;;;7.70;99.90;;;;;;5042832;28;20499;-81
2021/12/10 11:14:37;;;;;;;2.30;1.30;;;7.30;99.90;;;;;;5051465;28;20422;-81
2021/12/10 11:17:10;;;;;;;1.60;1.50;;;7.30;99.90;;;;;;5053909;28;20442;-81
2021/12/10 11:19:36;;;;;;;5.07;1.40;;;7.10;99.90;;;;;;5029458;28;20470;-81
2021/12/10 11:22:13;;;;;;;2.77;1.30;;;7.20;99.90;;;;;;5072041;28;20426;-80
2021/12/10 11:24:44;;;;;;;3.93;1.53;;;7.20;99.90;;;;;;5071181;28;20411;-80
2021/12/10 11:27:35;;;;;;;3.63;1.40;;;7.20;99.90;;;;;;5055016;28;20522;-82
2021/12/10 11:30:01;;;;;;;4.33;1.30;;;7.30;99.90;;;;;;5038698;28;20894;-82
2021/12/10 11:33:07;;;;;;;4.00;1.50;;;7.30;99.90;;;;;;5056178;28;20423;-81
2021/12/10 11:35:38;;;;;;;2.67;1.40;;;7.20;99.90;;;;;;5040059;28;20288;-81
2021/12/10 11:38:10;;;;;;;2.57;1.40;;;7.00;99.90;;;;;;5037620;28;20983;-80
2021/12/10 11:40:40;;;;;;;5.97;1.67;;;7.10;99.90;;;;;;5050362;28;20489;-81
2021/12/10 11:49:24;;;;;;;3.67;1.40;;;7.00;99.90;;;;;;5074370;28;20451;-82
2021/12/10 11:52:01;;;;;;;4.70;1.40;;;7.00;99.90;;;;;;5056941;28;20508;-82
2021/12/10 11:54:38;;;;;;;4.07;1.80;;;6.90;99.90;;;;;;5041673;28;20832;-82
2021/12/10 11:57:17;;;;;;;2.33;1.50;;;7.10;99.90;;;;;;5055912;28;20445;-82
2021/12/10 12:00:08;;;;;;;2.53;1.67;;;7.30;99.90;;;;;;5042150;28;20839;-83
2021/12/10 12:02:44;;;;;;;2.83;1.47;;;7.40;99.90;;;;;;5062598;28;20415;-82
2021/12/10 12:05:14;;;;;;;6.07;1.47;;;7.50;99.90;;;;;;5069947;28;20430;-82
2021/12/10 12:07:46;;;;;;;2.57;1.83;;;7.90;99.90;;;;;;5072104;28;20443;-83
2021/12/10 12:10:31;;;;;;;2.93;1.50;;;7.80;99.90;;;;;;5069075;28;20944;-82
2021/12/10 12:13:11;;;;;;;2.73;1.70;;;7.70;99.60;;;;;;5046580;28;20745;-81
2021/12/10 12:15:44;;;;;;;3.33;1.60;;;7.80;99.60;;;;;;5044179;28;20420;-81
2021/12/10 12:18:27;;;;;;;3.23;1.40;;;7.60;99.10;;;;;;5065789;28;20443;-81
2021/12/10 12:27:09;;;;;;;1.70;1.10;;;7.20;99.80;;;;;;5070046;28;20443;-81
2021/12/10 12:29:36;;;;;;;2.70;1.40;;;7.10;99.80;;;;;;5038506;28;20458;-82
2021/12/10 12:32:12;;;;;;;5.57;2.00;;;7.00;99.90;;;;;;5068200;28;21174;-80
2021/12/10 12:34:38;;;;;;;3.73;1.33;;;7.00;99.90;;;;;;5056309;28;20440;-80
2021/12/10 12:37:09;;;;;;;1.87;1.20;;;7.10;99.90;;;;;;5073632;28;20442;-83
2021/12/10 12:39:38;;;;;;;4.23;1.37;;;7.20;99.90;;;;;;5056682;28;20209;-80
2021/12/10 12:42:26;;;;;;;2.27;1.50;;;7.10;99.90;;;;;;5059781;28;20428;-81
2021/12/10 12:44:55;;;;;;;5.47;1.67;;;7.00;99.90;;;;;;5074807;28;20446;-81
2021/12/10 12:47:27;;;;;;;3.50;1.17;;;7.00;99.90;;;;;;5060703;28;20495;-80
2021/12/10 12:50:12;;;;;;;4.13;1.53;;;6.70;99.90;;;;;;5073158;28;21033;-81
2021/12/10 12:52:51;;;;;;;3.23;1.50;;;7.20;99.90;;;;;;5055197;28;20484;-80
2021/12/10 12:55:36;;;;;;;2.27;1.30;;;6.90;99.90;;;;;;5072098;28;20423;-82
2021/12/10 12:58:11;;;;;;;2.10;1.40;;;6.70;99.90;;;;;;5054087;28;20446;-82
2021/12/10 13:00:57;;;;;;;6.27;1.60;;;7.00;99.90;;;;;;5063491;28;20416;-81
2021/12/10 13:03:43;;;;;;;3.73;1.70;;;7.00;99.90;;;;;;5071677;28;20925;-80
2021/12/10 13:06:27;;;;;;;2.43;1.87;;;6.70;99.90;;;;;;5071608;28;20442;-80
2021/12/10 13:09:16;;;;;;;8.80;1.40;;;6.90;99.90;;;;;;5030725;28;20909;-82
2021/12/10 13:11:57;;;;;;;2.30;1.50;;;6.90;99.90;;;;;;5080005;28;20431;-82
2021/12/10 13:14:30;;;;;;;2.50;1.47;;;7.10;99.90;;;;;;5055218;28;20419;-82
2021/12/10 13:17:08;;;;;;;1.73;1.40;;;6.70;99.90;;;;;;5057153;28;20700;-82
2021/12/10 13:19:34;;;;;;;2.20;1.20;;;7.00;99.90;;;;;;5045341;28;20979;-80
2021/12/10 13:22:13;;;;;;;3.20;1.10;;;6.90;99.90;;;;;;5050975;28;20519;-82
2021/12/10 13:24:43;;;;;;;3.53;1.73;;;6.90;99.90;;;;;;5061706;28;20212;-81
2021/12/10 13:27:10;;;;;;;1.87;1.30;;;7.00;99.90;;;;;;5061250;28;20464;-82
2021/12/10 13:29:36;;;;;;;2.63;1.10;;;6.70;99.90;;;;;;5063584;28;20532;-83